Aeroporto :
LOGIN :

Iscrizione | Disclaimer

   EN    FR    IT 

 










Sommario :    VFR   VFR Marginale   IFR   IFR Intensivo   IFR Molto Intensivo
Visibilità : 
Base nubi : 
>= 8 km
>= 3000ft
5 / 8 km
1000 / 3000 ft
1500m / 5 km
500 / 1000 ft
800 / 1500m
200 / 500 ft
< 800m
< 200 ft
Simboli :   Temporali  Nebbia  Neve Forte  Precipitazioni Forti  Vento > 20 kt
SIGMETs :   Varie  Temporali  Ghiacco  Turbolenza  Onda orograficha  Ceneri Vulcaniche






- Altitudine del aeroporto : 288 ft
- Codice IATA : BZZ


EGVN - RAF Brize Norton

ULTIMO METAR :
  • 220520Z 12006KT 9999 FEW014 BKN042 06/06 Q0994 TEMPO SCT010

METARs OBSOLETI :
  • 220450Z 13004KT 9999 FEW003 SCT014 BKN048 06/06 Q0994 BECMG FEW014 BKN030 RMK GRN BECMG BLU
  • 220420Z 13005KT 5000 BR SCT004 SCT010 BKN048 06/06 Q0994 BECMG 9999 NSW FEW015 BKN030 RMK YLO2 BECMG BLU
  • 220350Z 12006KT 4500 BR SCT004 BKN015 06/06 Q0994 BECMG 9999 NSW FEW015 BKN030 RMK YLO2 BECMG BLU
  • 220320Z 12007KT 4500 -DZ SCT004 BKN030 06/06 Q0994 BECMG 9999 NSW FEW015 BKN030 RMK YLO2 BECMG BLU
  • 220250Z 11007KT 4000 -DZ SCT004 BKN030 06/06 Q0995 BECMG 9999 NSW FEW013 BKN030

TAF AMD TAF EGVN
Valido dal 22 a 03 ore il 23 a 03 ore UTC


220338Z 2203/2303 12008KT 4000 BR BKN003
BECMG 2203/2205 9999 NSW SCT025
PROB30
TEMPO 2205/2212 7000 SHRA SCT014TCU
TEMPO 2212/2217 4500 SHRA BKN010
PROB30
TEMPO 2217/2224 SCT014
BECMG 2300/2303 SCT015
TEMPO 2300/2303 7000 RA SCT008 BKN015



MetMap, La meteo Aeronautica in un colpo d'occhio ! - Copyright ORBIFLY Dicembre 2007 - Disclaimer

ORBIFLY MET'MAP TEAM :

Programmazione e sviluppo : Alexandra Zaïnal
Concezione e sviluppo : Baudouin d'Aumeries
Co-Programmazione e sviluppo : Marc-Olivier Méhu
Supporto tecnico e logistico : Manuel Goepfert
Aiuto per la traduzione : Arnaldo La Scala

Contatto : metmap@orbifly.com




FONTI E CREDITI :

   NOAA